sensor_id;sensor_type;location;lat;lon;timestamp;P1;durP1;ratioP1;P2;durP2;ratioP2
568;SDS011;269;48.884;9.192;2024-03-02T00:00:18;16.00;;;14.40;;
568;SDS011;269;48.884;9.192;2024-03-02T00:02:46;15.98;;;14.48;;
568;SDS011;269;48.884;9.192;2024-03-02T00:05:14;16.52;;;14.98;;
568;SDS011;269;48.884;9.192;2024-03-02T00:07:41;15.90;;;14.30;;
568;SDS011;269;48.884;9.192;2024-03-02T00:10:09;15.55;;;14.18;;
568;SDS011;269;48.884;9.192;2024-03-02T00:12:39;14.40;;;13.10;;
568;SDS011;269;48.884;9.192;2024-03-02T00:15:05;16.27;;;14.60;;
568;SDS011;269;48.884;9.192;2024-03-02T00:17:51;15.00;;;13.60;;
568;SDS011;269;48.884;9.192;2024-03-02T00:20:20;15.60;;;14.10;;
568;SDS011;269;48.884;9.192;2024-03-02T00:22:48;15.40;;;13.80;;
568;SDS011;269;48.884;9.192;2024-03-02T00:25:14;15.27;;;13.88;;
568;SDS011;269;48.884;9.192;2024-03-02T00:27:42;15.23;;;13.75;;
568;SDS011;269;48.884;9.192;2024-03-02T00:30:18;15.68;;;14.18;;
568;SDS011;269;48.884;9.192;2024-03-02T00:33:07;15.25;;;13.85;;
568;SDS011;269;48.884;9.192;2024-03-02T00:35:34;16.35;;;14.77;;
568;SDS011;269;48.884;9.192;2024-03-02T00:38:03;13.63;;;12.35;;
568;SDS011;269;48.884;9.192;2024-03-02T00:40:31;14.40;;;12.93;;
568;SDS011;269;48.884;9.192;2024-03-02T00:42:59;14.80;;;13.40;;
568;SDS011;269;48.884;9.192;2024-03-02T00:45:25;15.48;;;13.90;;
568;SDS011;269;48.884;9.192;2024-03-02T00:47:53;15.20;;;13.80;;
568;SDS011;269;48.884;9.192;2024-03-02T00:50:19;14.77;;;13.30;;
568;SDS011;269;48.884;9.192;2024-03-02T00:52:46;15.75;;;14.25;;
568;SDS011;269;48.884;9.192;2024-03-02T00:55:13;14.85;;;13.43;;
568;SDS011;269;48.884;9.192;2024-03-02T00:57:40;17.13;;;14.85;;
568;SDS011;269;48.884;9.192;2024-03-02T01:00:10;15.98;;;14.48;;
568;SDS011;269;48.884;9.192;2024-03-02T01:02:40;14.70;;;13.35;;
568;SDS011;269;48.884;9.192;2024-03-02T01:05:07;15.98;;;14.40;;
568;SDS011;269;48.884;9.192;2024-03-02T01:07:34;15.57;;;14.00;;
568;SDS011;269;48.884;9.192;2024-03-02T01:10:00;15.10;;;13.60;;
568;SDS011;269;48.884;9.192;2024-03-02T01:12:27;15.15;;;12.93;;
568;SDS011;269;48.884;9.192;2024-03-02T01:14:54;15.50;;;13.95;;
568;SDS011;269;48.884;9.192;2024-03-02T01:17:22;15.43;;;14.02;;
568;SDS011;269;48.884;9.192;2024-03-02T01:19:48;16.13;;;14.60;;
568;SDS011;269;48.884;9.192;2024-03-02T01:22:15;16.92;;;15.23;;
568;SDS011;269;48.884;9.192;2024-03-02T01:24:43;16.52;;;14.90;;
568;SDS011;269;48.884;9.192;2024-03-02T01:27:09;16.63;;;14.98;;
568;SDS011;269;48.884;9.192;2024-03-02T01:29:36;16.10;;;14.40;;
568;SDS011;269;48.884;9.192;2024-03-02T01:32:02;14.57;;;13.18;;
568;SDS011;269;48.884;9.192;2024-03-02T01:34:31;15.07;;;13.57;;
568;SDS011;269;48.884;9.192;2024-03-02T01:36:57;17.27;;;15.48;;
568;SDS011;269;48.884;9.192;2024-03-02T01:39:23;15.70;;;14.20;;
568;SDS011;269;48.884;9.192;2024-03-02T01:41:49;16.50;;;14.90;;
568;SDS011;269;48.884;9.192;2024-03-02T01:44:16;16.55;;;14.95;;
568;SDS011;269;48.884;9.192;2024-03-02T01:46:43;15.32;;;13.75;;
568;SDS011;269;48.884;9.192;2024-03-02T01:49:09;15.40;;;14.00;;
568;SDS011;269;48.884;9.192;2024-03-02T01:51:37;15.32;;;13.73;;
568;SDS011;269;48.884;9.192;2024-03-02T01:54:04;15.10;;;13.68;;
568;SDS011;269;48.884;9.192;2024-03-02T01:56:31;15.48;;;14.07;;
568;SDS011;269;48.884;9.192;2024-03-02T01:58:58;15.77;;;14.25;;
568;SDS011;269;48.884;9.192;2024-03-02T02:01:25;16.73;;;15.07;;
568;SDS011;269;48.884;9.192;2024-03-02T02:03:51;15.00;;;13.20;;
568;SDS011;269;48.884;9.192;2024-03-02T02:06:18;16.00;;;14.40;;
568;SDS011;269;48.884;9.192;2024-03-02T02:08:46;16.17;;;14.48;;
568;SDS011;269;48.884;9.192;2024-03-02T02:11:14;16.08;;;14.50;;
568;SDS011;269;48.884;9.192;2024-03-02T02:13:41;16.80;;;15.00;;
568;SDS011;269;48.884;9.192;2024-03-02T02:16:08;16.90;;;14.75;;
568;SDS011;269;48.884;9.192;2024-03-02T02:18:35;15.48;;;14.00;;
568;SDS011;269;48.884;9.192;2024-03-02T02:21:02;16.08;;;14.55;;
568;SDS011;269;48.884;9.192;2024-03-02T02:23:30;16.05;;;14.45;;
568;SDS011;269;48.884;9.192;2024-03-02T02:25:57;16.05;;;14.38;;
568;SDS011;269;48.884;9.192;2024-03-02T02:28:23;16.27;;;14.68;;
568;SDS011;269;48.884;9.192;2024-03-02T02:30:50;14.88;;;13.32;;
568;SDS011;269;48.884;9.192;2024-03-02T02:33:16;16.13;;;14.48;;
568;SDS011;269;48.884;9.192;2024-03-02T02:35:43;15.90;;;14.30;;
568;SDS011;269;48.884;9.192;2024-03-02T02:38:10;14.60;;;13.10;;
568;SDS011;269;48.884;9.192;2024-03-02T02:40:38;16.13;;;14.52;;
568;SDS011;269;48.884;9.192;2024-03-02T02:43:05;13.85;;;12.55;;
568;SDS011;269;48.884;9.192;2024-03-02T02:45:32;14.93;;;13.43;;
568;SDS011;269;48.884;9.192;2024-03-02T02:47:58;15.20;;;13.75;;
568;SDS011;269;48.884;9.192;2024-03-02T02:50:27;15.15;;;13.55;;
568;SDS011;269;48.884;9.192;2024-03-02T02:52:55;15.65;;;14.05;;
568;SDS011;269;48.884;9.192;2024-03-02T02:55:22;14.55;;;13.13;;
568;SDS011;269;48.884;9.192;2024-03-02T02:57:50;15.63;;;13.93;;
568;SDS011;269;48.884;9.192;2024-03-02T03:00:17;16.20;;;14.60;;
568;SDS011;269;48.884;9.192;2024-03-02T03:02:45;16.23;;;14.63;;
568;SDS011;269;48.884;9.192;2024-03-02T03:05:13;14.93;;;13.52;;
568;SDS011;269;48.884;9.192;2024-03-02T03:07:40;15.52;;;14.05;;
568;SDS011;269;48.884;9.192;2024-03-02T03:10:07;15.88;;;14.23;;
568;SDS011;269;48.884;9.192;2024-03-02T03:12:34;15.23;;;13.60;;
568;SDS011;269;48.884;9.192;2024-03-02T03:15:03;15.43;;;13.80;;
568;SDS011;269;48.884;9.192;2024-03-02T03:17:32;16.73;;;15.02;;
568;SDS011;269;48.884;9.192;2024-03-02T03:19:58;15.52;;;13.93;;
568;SDS011;269;48.884;9.192;2024-03-02T03:22:26;16.15;;;14.57;;
568;SDS011;269;48.884;9.192;2024-03-02T03:24:52;16.65;;;14.95;;
568;SDS011;269;48.884;9.192;2024-03-02T03:27:19;17.83;;;16.00;;
568;SDS011;269;48.884;9.192;2024-03-02T03:29:45;17.27;;;14.68;;
568;SDS011;269;48.884;9.192;2024-03-02T03:32:13;17.73;;;15.93;;
568;SDS011;269;48.884;9.192;2024-03-02T03:34:41;18.58;;;16.67;;
568;SDS011;269;48.884;9.192;2024-03-02T03:37:08;19.30;;;15.65;;
568;SDS011;269;48.884;9.192;2024-03-02T03:39:35;16.83;;;15.07;;
568;SDS011;269;48.884;9.192;2024-03-02T03:42:02;16.15;;;14.60;;
568;SDS011;269;48.884;9.192;2024-03-02T03:44:28;16.42;;;14.68;;
568;SDS011;269;48.884;9.192;2024-03-02T03:46:55;16.63;;;14.55;;
568;SDS011;269;48.884;9.192;2024-03-02T03:49:24;18.55;;;16.13;;
568;SDS011;269;48.884;9.192;2024-03-02T03:51:50;17.35;;;15.55;;
568;SDS011;269;48.884;9.192;2024-03-02T03:54:17;17.10;;;15.30;;
568;SDS011;269;48.884;9.192;2024-03-02T03:56:43;17.17;;;15.38;;
568;SDS011;269;48.884;9.192;2024-03-02T03:59:10;17.92;;;15.50;;
568;SDS011;269;48.884;9.192;2024-03-02T04:01:37;16.00;;;14.50;;
568;SDS011;269;48.884;9.192;2024-03-02T04:04:03;16.90;;;15.20;;
568;SDS011;269;48.884;9.192;2024-03-02T04:06:32;18.77;;;14.90;;
568;SDS011;269;48.884;9.192;2024-03-02T04:08:58;16.75;;;15.05;;
568;SDS011;269;48.884;9.192;2024-03-02T04:11:25;16.70;;;14.88;;
568;SDS011;269;48.884;9.192;2024-03-02T04:13:51;16.60;;;14.90;;
568;SDS011;269;48.884;9.192;2024-03-02T04:16:18;16.50;;;14.88;;
568;SDS011;269;48.884;9.192;2024-03-02T04:18:45;17.75;;;15.88;;
568;SDS011;269;48.884;9.192;2024-03-02T04:21:11;18.50;;;15.85;;
568;SDS011;269;48.884;9.192;2024-03-02T04:23:39;16.50;;;14.90;;
568;SDS011;269;48.884;9.192;2024-03-02T04:26:08;17.20;;;15.40;;
568;SDS011;269;48.884;9.192;2024-03-02T04:28:34;17.40;;;15.60;;
568;SDS011;269;48.884;9.192;2024-03-02T04:31:01;16.55;;;14.85;;
568;SDS011;269;48.884;9.192;2024-03-02T04:33:28;17.13;;;15.40;;
568;SDS011;269;48.884;9.192;2024-03-02T04:35:54;17.02;;;15.25;;
568;SDS011;269;48.884;9.192;2024-03-02T04:38:22;16.27;;;14.57;;
568;SDS011;269;48.884;9.192;2024-03-02T04:40:50;15.80;;;14.10;;
568;SDS011;269;48.884;9.192;2024-03-02T04:43:17;16.52;;;14.73;;
568;SDS011;269;48.884;9.192;2024-03-02T04:45:44;16.77;;;15.05;;
568;SDS011;269;48.884;9.192;2024-03-02T04:48:12;16.10;;;14.40;;
568;SDS011;269;48.884;9.192;2024-03-02T04:50:39;15.73;;;13.98;;
568;SDS011;269;48.884;9.192;2024-03-02T04:53:05;16.88;;;15.20;;
568;SDS011;269;48.884;9.192;2024-03-02T04:55:32;17.73;;;15.80;;
568;SDS011;269;48.884;9.192;2024-03-02T04:58:17;17.10;;;15.30;;
568;SDS011;269;48.884;9.192;2024-03-02T05:00:44;17.95;;;16.10;;
568;SDS011;269;48.884;9.192;2024-03-02T05:03:11;17.17;;;14.93;;
568;SDS011;269;48.884;9.192;2024-03-02T05:05:38;16.55;;;14.95;;
568;SDS011;269;48.884;9.192;2024-03-02T05:08:05;18.08;;;16.23;;
568;SDS011;269;48.884;9.192;2024-03-02T05:10:31;17.77;;;15.70;;
568;SDS011;269;48.884;9.192;2024-03-02T05:12:58;17.13;;;15.23;;
568;SDS011;269;48.884;9.192;2024-03-02T05:15:26;18.20;;;15.50;;
568;SDS011;269;48.884;9.192;2024-03-02T05:17:53;17.63;;;15.70;;
568;SDS011;269;48.884;9.192;2024-03-02T05:20:19;20.23;;;16.80;;
568;SDS011;269;48.884;9.192;2024-03-02T05:22:46;19.05;;;17.15;;
568;SDS011;269;48.884;9.192;2024-03-02T05:25:13;16.85;;;15.13;;
568;SDS011;269;48.884;9.192;2024-03-02T05:27:40;18.30;;;15.10;;
568;SDS011;269;48.884;9.192;2024-03-02T05:30:07;16.50;;;14.80;;
568;SDS011;269;48.884;9.192;2024-03-02T05:32:36;17.75;;;15.95;;
568;SDS011;269;48.884;9.192;2024-03-02T05:35:03;16.60;;;15.00;;
568;SDS011;269;48.884;9.192;2024-03-02T05:37:30;17.52;;;15.20;;
568;SDS011;269;48.884;9.192;2024-03-02T05:39:57;16.77;;;14.73;;
568;SDS011;269;48.884;9.192;2024-03-02T05:42:24;19.20;;;16.02;;
568;SDS011;269;48.884;9.192;2024-03-02T05:44:52;18.25;;;16.35;;
568;SDS011;269;48.884;9.192;2024-03-02T05:47:19;17.83;;;15.93;;
568;SDS011;269;48.884;9.192;2024-03-02T05:49:47;17.42;;;15.63;;
568;SDS011;269;48.884;9.192;2024-03-02T05:52:13;17.52;;;14.80;;
568;SDS011;269;48.884;9.192;2024-03-02T05:54:40;18.60;;;16.70;;
568;SDS011;269;48.884;9.192;2024-03-02T05:57:06;17.50;;;15.23;;
568;SDS011;269;48.884;9.192;2024-03-02T05:59:56;18.02;;;15.80;;
568;SDS011;269;48.884;9.192;2024-03-02T06:02:24;17.13;;;14.90;;
568;SDS011;269;48.884;9.192;2024-03-02T06:04:54;17.77;;;15.95;;
568;SDS011;269;48.884;9.192;2024-03-02T06:07:22;17.10;;;15.20;;
568;SDS011;269;48.884;9.192;2024-03-02T06:09:48;19.65;;;17.48;;
568;SDS011;269;48.884;9.192;2024-03-02T06:12:17;17.15;;;15.35;;
568;SDS011;269;48.884;9.192;2024-03-02T06:14:43;19.70;;;17.10;;
568;SDS011;269;48.884;9.192;2024-03-02T06:17:10;19.85;;;17.75;;
568;SDS011;269;48.884;9.192;2024-03-02T06:19:39;21.58;;;18.02;;
568;SDS011;269;48.884;9.192;2024-03-02T06:22:09;19.02;;;16.77;;
568;SDS011;269;48.884;9.192;2024-03-02T06:24:35;19.42;;;17.27;;
568;SDS011;269;48.884;9.192;2024-03-02T06:27:02;21.38;;;17.98;;
568;SDS011;269;48.884;9.192;2024-03-02T06:29:29;19.70;;;17.42;;
568;SDS011;269;48.884;9.192;2024-03-02T06:31:56;19.27;;;17.23;;
568;SDS011;269;48.884;9.192;2024-03-02T06:34:24;21.17;;;18.30;;
568;SDS011;269;48.884;9.192;2024-03-02T06:36:51;21.27;;;17.95;;
568;SDS011;269;48.884;9.192;2024-03-02T06:39:19;21.13;;;17.33;;
568;SDS011;269;48.884;9.192;2024-03-02T06:41:46;21.23;;;18.98;;
568;SDS011;269;48.884;9.192;2024-03-02T06:44:13;22.13;;;19.23;;
568;SDS011;269;48.884;9.192;2024-03-02T06:46:39;21.67;;;18.55;;
568;SDS011;269;48.884;9.192;2024-03-02T06:49:06;20.73;;;18.45;;
568;SDS011;269;48.884;9.192;2024-03-02T06:51:33;20.40;;;18.25;;
568;SDS011;269;48.884;9.192;2024-03-02T06:54:00;22.88;;;18.83;;
568;SDS011;269;48.884;9.192;2024-03-02T06:56:28;22.92;;;19.23;;
568;SDS011;269;48.884;9.192;2024-03-02T06:58:55;23.10;;;19.50;;
568;SDS011;269;48.884;9.192;2024-03-02T07:01:22;20.58;;;18.33;;
568;SDS011;269;48.884;9.192;2024-03-02T07:03:51;9.52;;;7.22;;
568;SDS011;269;48.884;9.192;2024-03-02T07:06:18;10.68;;;9.73;;
568;SDS011;269;48.884;9.192;2024-03-02T07:08:44;10.75;;;9.75;;
568;SDS011;269;48.884;9.192;2024-03-02T07:11:11;7.10;;;6.40;;
568;SDS011;269;48.884;9.192;2024-03-02T07:13:39;9.00;;;8.10;;
568;SDS011;269;48.884;9.192;2024-03-02T07:16:05;13.88;;;12.43;;
568;SDS011;269;48.884;9.192;2024-03-02T07:18:49;15.80;;;14.18;;
568;SDS011;269;48.884;9.192;2024-03-02T07:21:17;14.68;;;13.27;;
568;SDS011;269;48.884;9.192;2024-03-02T07:23:43;16.15;;;14.55;;
568;SDS011;269;48.884;9.192;2024-03-02T07:26:10;15.40;;;13.80;;
568;SDS011;269;48.884;9.192;2024-03-02T07:28:38;15.45;;;14.05;;
568;SDS011;269;48.884;9.192;2024-03-02T07:31:05;16.60;;;14.90;;
568;SDS011;269;48.884;9.192;2024-03-02T07:33:32;16.73;;;15.02;;
568;SDS011;269;48.884;9.192;2024-03-02T07:35:59;17.35;;;15.25;;
568;SDS011;269;48.884;9.192;2024-03-02T07:38:27;17.00;;;15.27;;
568;SDS011;269;48.884;9.192;2024-03-02T07:40:54;18.17;;;15.50;;
568;SDS011;269;48.884;9.192;2024-03-02T07:43:20;16.23;;;14.63;;
568;SDS011;269;48.884;9.192;2024-03-02T07:45:49;17.60;;;15.70;;
568;SDS011;269;48.884;9.192;2024-03-02T07:48:15;17.00;;;15.20;;
568;SDS011;269;48.884;9.192;2024-03-02T07:50:42;15.90;;;14.27;;
568;SDS011;269;48.884;9.192;2024-03-02T07:53:09;16.50;;;14.65;;
568;SDS011;269;48.884;9.192;2024-03-02T07:55:37;15.98;;;14.07;;
568;SDS011;269;48.884;9.192;2024-03-02T07:58:03;17.48;;;15.60;;
568;SDS011;269;48.884;9.192;2024-03-02T08:00:30;18.00;;;16.10;;
568;SDS011;269;48.884;9.192;2024-03-02T08:02:58;17.35;;;15.65;;
568;SDS011;269;48.884;9.192;2024-03-02T08:05:25;17.40;;;15.73;;
568;SDS011;269;48.884;9.192;2024-03-02T08:07:52;15.60;;;13.63;;
568;SDS011;269;48.884;9.192;2024-03-02T08:10:19;16.67;;;15.02;;
568;SDS011;269;48.884;9.192;2024-03-02T08:12:46;16.33;;;14.65;;
568;SDS011;269;48.884;9.192;2024-03-02T08:15:12;14.88;;;13.40;;
568;SDS011;269;48.884;9.192;2024-03-02T08:17:39;15.75;;;14.15;;
568;SDS011;269;48.884;9.192;2024-03-02T08:20:11;14.88;;;13.48;;
568;SDS011;269;48.884;9.192;2024-03-02T08:22:38;15.95;;;14.30;;
568;SDS011;269;48.884;9.192;2024-03-02T08:25:05;15.60;;;14.10;;
568;SDS011;269;48.884;9.192;2024-03-02T08:27:32;15.32;;;13.82;;
568;SDS011;269;48.884;9.192;2024-03-02T08:29:59;14.27;;;12.85;;
568;SDS011;269;48.884;9.192;2024-03-02T08:32:26;14.30;;;12.90;;
568;SDS011;269;48.884;9.192;2024-03-02T08:34:52;13.60;;;12.20;;
568;SDS011;269;48.884;9.192;2024-03-02T08:37:20;13.43;;;12.23;;
568;SDS011;269;48.884;9.192;2024-03-02T08:39:47;14.93;;;13.43;;
568;SDS011;269;48.884;9.192;2024-03-02T08:42:13;13.43;;;12.05;;
568;SDS011;269;48.884;9.192;2024-03-02T08:44:40;11.38;;;10.18;;
568;SDS011;269;48.884;9.192;2024-03-02T08:47:07;12.38;;;11.27;;
568;SDS011;269;48.884;9.192;2024-03-02T08:49:33;11.30;;;10.25;;
568;SDS011;269;48.884;9.192;2024-03-02T08:52:00;11.20;;;10.18;;
568;SDS011;269;48.884;9.192;2024-03-02T08:54:28;10.98;;;10.02;;
568;SDS011;269;48.884;9.192;2024-03-02T08:56:55;10.40;;;9.50;;
568;SDS011;269;48.884;9.192;2024-03-02T08:59:21;9.80;;;8.90;;
568;SDS011;269;48.884;9.192;2024-03-02T09:01:50;10.30;;;9.30;;
568;SDS011;269;48.884;9.192;2024-03-02T09:04:16;9.05;;;8.25;;
568;SDS011;269;48.884;9.192;2024-03-02T09:06:43;8.63;;;7.82;;
568;SDS011;269;48.884;9.192;2024-03-02T09:09:09;7.85;;;7.20;;
568;SDS011;269;48.884;9.192;2024-03-02T09:11:37;6.80;;;6.20;;
568;SDS011;269;48.884;9.192;2024-03-02T09:14:04;6.60;;;6.07;;
568;SDS011;269;48.884;9.192;2024-03-02T09:16:31;6.32;;;5.82;;
568;SDS011;269;48.884;9.192;2024-03-02T09:18:57;7.13;;;6.53;;
568;SDS011;269;48.884;9.192;2024-03-02T09:21:25;6.63;;;6.13;;
568;SDS011;269;48.884;9.192;2024-03-02T09:23:51;7.07;;;6.47;;
568;SDS011;269;48.884;9.192;2024-03-02T09:26:18;7.03;;;6.43;;
568;SDS011;269;48.884;9.192;2024-03-02T09:28:47;6.28;;;5.78;;
568;SDS011;269;48.884;9.192;2024-03-02T09:31:13;6.20;;;5.70;;
568;SDS011;269;48.884;9.192;2024-03-02T09:33:40;6.95;;;6.35;;
568;SDS011;269;48.884;9.192;2024-03-02T09:36:16;5.88;;;5.45;;
568;SDS011;269;48.884;9.192;2024-03-02T09:38:43;5.75;;;5.35;;
568;SDS011;269;48.884;9.192;2024-03-02T09:41:09;5.90;;;5.40;;
568;SDS011;269;48.884;9.192;2024-03-02T09:43:37;6.18;;;5.68;;
568;SDS011;269;48.884;9.192;2024-03-02T09:46:05;5.85;;;5.35;;
568;SDS011;269;48.884;9.192;2024-03-02T09:48:32;6.25;;;5.75;;
568;SDS011;269;48.884;9.192;2024-03-02T09:50:59;6.07;;;5.57;;
568;SDS011;269;48.884;9.192;2024-03-02T09:53:27;6.07;;;5.57;;
568;SDS011;269;48.884;9.192;2024-03-02T09:55:58;6.55;;;5.95;;
568;SDS011;269;48.884;9.192;2024-03-02T09:58:25;5.85;;;5.35;;
568;SDS011;269;48.884;9.192;2024-03-02T10:00:53;5.85;;;5.35;;
568;SDS011;269;48.884;9.192;2024-03-02T10:03:21;6.10;;;5.57;;
568;SDS011;269;48.884;9.192;2024-03-02T10:05:49;6.00;;;5.50;;
568;SDS011;269;48.884;9.192;2024-03-02T10:08:16;5.85;;;5.35;;
568;SDS011;269;48.884;9.192;2024-03-02T10:10:43;5.53;;;5.13;;
568;SDS011;269;48.884;9.192;2024-03-02T10:13:11;4.85;;;4.35;;
568;SDS011;269;48.884;9.192;2024-03-02T10:15:39;4.60;;;4.20;;
568;SDS011;269;48.884;9.192;2024-03-02T10:18:08;5.50;;;5.00;;
568;SDS011;269;48.884;9.192;2024-03-02T10:20:38;4.90;;;4.50;;
568;SDS011;269;48.884;9.192;2024-03-02T10:23:11;5.17;;;4.70;;
568;SDS011;269;48.884;9.192;2024-03-02T10:25:39;4.40;;;4.10;;
568;SDS011;269;48.884;9.192;2024-03-02T10:28:05;4.13;;;3.80;;
568;SDS011;269;48.884;9.192;2024-03-02T10:30:32;3.87;;;3.57;;
568;SDS011;269;48.884;9.192;2024-03-02T10:32:59;4.00;;;3.70;;
568;SDS011;269;48.884;9.192;2024-03-02T10:35:27;4.47;;;4.07;;
568;SDS011;269;48.884;9.192;2024-03-02T10:37:55;4.63;;;4.27;;
568;SDS011;269;48.884;9.192;2024-03-02T10:40:21;4.30;;;3.90;;
568;SDS011;269;48.884;9.192;2024-03-02T10:42:49;4.37;;;3.97;;
568;SDS011;269;48.884;9.192;2024-03-02T10:45:16;3.90;;;3.60;;
568;SDS011;269;48.884;9.192;2024-03-02T10:47:43;3.87;;;3.57;;
568;SDS011;269;48.884;9.192;2024-03-02T10:50:10;3.40;;;3.17;;
568;SDS011;269;48.884;9.192;2024-03-02T10:52:39;3.50;;;3.20;;
568;SDS011;269;48.884;9.192;2024-03-02T10:55:08;3.97;;;3.27;;
568;SDS011;269;48.884;9.192;2024-03-02T10:57:40;3.57;;;3.27;;
568;SDS011;269;48.884;9.192;2024-03-02T11:00:11;2.97;;;2.77;;
568;SDS011;269;48.884;9.192;2024-03-02T11:02:40;3.80;;;3.10;;
568;SDS011;269;48.884;9.192;2024-03-02T11:05:09;3.23;;;3.03;;
568;SDS011;269;48.884;9.192;2024-03-02T11:07:38;3.10;;;2.90;;
568;SDS011;269;48.884;9.192;2024-03-02T11:10:08;2.73;;;2.53;;
568;SDS011;269;48.884;9.192;2024-03-02T11:12:36;2.60;;;2.40;;
568;SDS011;269;48.884;9.192;2024-03-02T11:15:09;2.77;;;2.57;;
568;SDS011;269;48.884;9.192;2024-03-02T11:17:39;2.83;;;2.63;;
568;SDS011;269;48.884;9.192;2024-03-02T11:20:07;2.80;;;2.57;;
568;SDS011;269;48.884;9.192;2024-03-02T11:22:35;2.83;;;2.63;;
568;SDS011;269;48.884;9.192;2024-03-02T11:25:03;2.90;;;2.70;;
568;SDS011;269;48.884;9.192;2024-03-02T11:33:16;1.93;;;1.83;;
568;SDS011;269;48.884;9.192;2024-03-02T11:35:50;2.53;;;2.33;;
568;SDS011;269;48.884;9.192;2024-03-02T11:38:17;2.07;;;1.97;;
568;SDS011;269;48.884;9.192;2024-03-02T11:40:44;2.53;;;2.30;;
568;SDS011;269;48.884;9.192;2024-03-02T11:43:13;2.47;;;2.27;;
568;SDS011;269;48.884;9.192;2024-03-02T11:45:41;2.40;;;2.20;;
568;SDS011;269;48.884;9.192;2024-03-02T11:48:10;2.20;;;2.10;;
568;SDS011;269;48.884;9.192;2024-03-02T11:50:40;2.30;;;2.10;;
568;SDS011;269;48.884;9.192;2024-03-02T11:53:09;1.73;;;1.63;;
568;SDS011;269;48.884;9.192;2024-03-02T11:55:37;1.70;;;1.60;;
568;SDS011;269;48.884;9.192;2024-03-02T11:58:05;1.90;;;1.80;;
568;SDS011;269;48.884;9.192;2024-03-02T12:00:38;1.73;;;1.63;;
568;SDS011;269;48.884;9.192;2024-03-02T12:03:06;1.80;;;1.70;;
568;SDS011;269;48.884;9.192;2024-03-02T12:05:34;2.23;;;2.03;;
568;SDS011;269;48.884;9.192;2024-03-02T12:08:07;2.00;;;1.80;;
568;SDS011;269;48.884;9.192;2024-03-02T12:10:34;2.20;;;2.00;;
568;SDS011;269;48.884;9.192;2024-03-02T12:13:04;1.70;;;1.60;;
568;SDS011;269;48.884;9.192;2024-03-02T12:15:33;1.97;;;1.77;;
568;SDS011;269;48.884;9.192;2024-03-02T12:18:02;1.60;;;1.50;;
568;SDS011;269;48.884;9.192;2024-03-02T12:20:29;2.00;;;1.83;;
568;SDS011;269;48.884;9.192;2024-03-02T12:22:59;2.30;;;2.10;;
568;SDS011;269;48.884;9.192;2024-03-02T12:25:27;2.03;;;1.93;;
568;SDS011;269;48.884;9.192;2024-03-02T12:27:56;1.80;;;1.70;;
568;SDS011;269;48.884;9.192;2024-03-02T12:30:24;1.60;;;1.50;;
568;SDS011;269;48.884;9.192;2024-03-02T12:32:52;1.77;;;1.30;;
568;SDS011;269;48.884;9.192;2024-03-02T12:35:19;1.67;;;1.57;;
568;SDS011;269;48.884;9.192;2024-03-02T12:37:46;1.30;;;1.20;;
568;SDS011;269;48.884;9.192;2024-03-02T12:40:17;1.27;;;1.17;;
568;SDS011;269;48.884;9.192;2024-03-02T12:42:45;1.57;;;1.47;;
568;SDS011;269;48.884;9.192;2024-03-02T12:45:13;1.60;;;1.50;;
568;SDS011;269;48.884;9.192;2024-03-02T12:47:40;1.70;;;1.60;;
568;SDS011;269;48.884;9.192;2024-03-02T12:50:09;1.93;;;1.80;;
568;SDS011;269;48.884;9.192;2024-03-02T12:52:37;2.30;;;1.43;;
568;SDS011;269;48.884;9.192;2024-03-02T12:55:04;2.70;;;1.37;;
568;SDS011;269;48.884;9.192;2024-03-02T12:57:32;1.30;;;1.20;;
568;SDS011;269;48.884;9.192;2024-03-02T12:59:59;1.33;;;1.23;;
568;SDS011;269;48.884;9.192;2024-03-02T13:02:28;2.10;;;1.40;;
568;SDS011;269;48.884;9.192;2024-03-02T13:04:55;1.30;;;1.20;;
568;SDS011;269;48.884;9.192;2024-03-02T13:07:24;1.83;;;1.17;;
568;SDS011;269;48.884;9.192;2024-03-02T13:09:51;1.00;;;1.00;;
568;SDS011;269;48.884;9.192;2024-03-02T13:12:19;1.30;;;1.20;;
568;SDS011;269;48.884;9.192;2024-03-02T13:41:19;1.00;;;0.90;;
568;SDS011;269;48.884;9.192;2024-03-02T13:43:47;0.83;;;0.80;;
568;SDS011;269;48.884;9.192;2024-03-02T13:46:14;1.00;;;0.97;;
568;SDS011;269;48.884;9.192;2024-03-02T13:48:42;0.80;;;0.80;;
568;SDS011;269;48.884;9.192;2024-03-02T13:51:08;1.30;;;0.87;;
568;SDS011;269;48.884;9.192;2024-03-02T13:53:35;1.47;;;1.20;;
568;SDS011;269;48.884;9.192;2024-03-02T13:56:02;0.80;;;0.80;;
568;SDS011;269;48.884;9.192;2024-03-02T13:58:31;0.90;;;0.90;;
568;SDS011;269;48.884;9.192;2024-03-02T14:00:57;1.00;;;0.80;;
568;SDS011;269;48.884;9.192;2024-03-02T14:03:25;0.90;;;0.80;;
568;SDS011;269;48.884;9.192;2024-03-02T14:05:52;1.00;;;0.90;;
568;SDS011;269;48.884;9.192;2024-03-02T14:08:20;1.10;;;0.90;;
568;SDS011;269;48.884;9.192;2024-03-02T14:10:47;1.03;;;0.93;;
568;SDS011;269;48.884;9.192;2024-03-02T14:13:13;0.80;;;0.80;;
568;SDS011;269;48.884;9.192;2024-03-02T14:15:42;1.10;;;1.00;;
568;SDS011;269;48.884;9.192;2024-03-02T14:18:09;1.00;;;0.90;;
568;SDS011;269;48.884;9.192;2024-03-02T14:20:37;1.50;;;1.20;;
568;SDS011;269;48.884;9.192;2024-03-02T14:23:04;1.70;;;1.40;;
568;SDS011;269;48.884;9.192;2024-03-02T14:25:30;1.60;;;1.33;;
568;SDS011;269;48.884;9.192;2024-03-02T14:27:59;1.43;;;1.33;;
568;SDS011;269;48.884;9.192;2024-03-02T14:30:26;1.63;;;1.27;;
568;SDS011;269;48.884;9.192;2024-03-02T14:32:54;1.13;;;1.13;;
568;SDS011;269;48.884;9.192;2024-03-02T14:35:22;1.20;;;1.10;;
568;SDS011;269;48.884;9.192;2024-03-02T14:37:50;1.30;;;1.17;;
568;SDS011;269;48.884;9.192;2024-03-02T14:40:18;1.47;;;1.37;;
568;SDS011;269;48.884;9.192;2024-03-02T14:42:47;1.37;;;1.27;;
568;SDS011;269;48.884;9.192;2024-03-02T14:45:14;1.50;;;1.40;;
568;SDS011;269;48.884;9.192;2024-03-02T14:47:41;2.27;;;1.50;;
568;SDS011;269;48.884;9.192;2024-03-02T14:50:09;1.23;;;1.13;;
568;SDS011;269;48.884;9.192;2024-03-02T14:52:36;1.67;;;1.57;;
568;SDS011;269;48.884;9.192;2024-03-02T14:55:03;1.50;;;1.40;;
568;SDS011;269;48.884;9.192;2024-03-02T14:57:32;1.87;;;1.60;;
568;SDS011;269;48.884;9.192;2024-03-02T14:59:59;1.10;;;1.10;;
568;SDS011;269;48.884;9.192;2024-03-02T15:02:25;1.33;;;1.23;;
568;SDS011;269;48.884;9.192;2024-03-02T15:04:53;1.40;;;1.20;;
568;SDS011;269;48.884;9.192;2024-03-02T15:07:22;1.70;;;1.60;;
568;SDS011;269;48.884;9.192;2024-03-02T15:09:50;1.87;;;1.77;;
568;SDS011;269;48.884;9.192;2024-03-02T15:12:16;2.33;;;2.03;;
568;SDS011;269;48.884;9.192;2024-03-02T15:14:43;1.60;;;1.50;;
568;SDS011;269;48.884;9.192;2024-03-02T15:17:12;1.40;;;1.30;;
568;SDS011;269;48.884;9.192;2024-03-02T15:19:41;1.30;;;1.20;;
568;SDS011;269;48.884;9.192;2024-03-02T15:22:09;1.70;;;1.60;;
568;SDS011;269;48.884;9.192;2024-03-02T15:24:37;1.33;;;1.10;;
568;SDS011;269;48.884;9.192;2024-03-02T15:27:05;1.27;;;1.17;;
568;SDS011;269;48.884;9.192;2024-03-02T15:29:33;1.30;;;1.17;;
568;SDS011;269;48.884;9.192;2024-03-02T15:32:00;1.60;;;1.50;;
568;SDS011;269;48.884;9.192;2024-03-02T15:34:30;1.57;;;1.47;;
568;SDS011;269;48.884;9.192;2024-03-02T15:36:56;1.80;;;1.40;;
568;SDS011;269;48.884;9.192;2024-03-02T15:39:23;1.40;;;1.30;;
568;SDS011;269;48.884;9.192;2024-03-02T15:41:51;1.23;;;1.10;;
568;SDS011;269;48.884;9.192;2024-03-02T15:44:18;1.40;;;1.30;;
568;SDS011;269;48.884;9.192;2024-03-02T15:46:45;2.30;;;1.60;;
568;SDS011;269;48.884;9.192;2024-03-02T15:49:12;1.97;;;1.47;;
568;SDS011;269;48.884;9.192;2024-03-02T15:51:40;1.97;;;1.33;;
568;SDS011;269;48.884;9.192;2024-03-02T15:54:09;1.60;;;1.50;;
568;SDS011;269;48.884;9.192;2024-03-02T15:56:35;2.93;;;1.60;;
568;SDS011;269;48.884;9.192;2024-03-02T15:59:06;3.03;;;1.33;;
568;SDS011;269;48.884;9.192;2024-03-02T16:01:38;1.30;;;1.20;;